createdAt,value
2023-04-18T00:00:19.309Z,5.68
2023-04-18T00:03:21.935Z,5.69
2023-04-18T00:06:23.846Z,5.72
2023-04-18T00:09:27.150Z,5.73
2023-04-18T00:12:28.935Z,5.78
2023-04-18T00:15:31.351Z,5.82
2023-04-18T00:18:32.973Z,5.84
2023-04-18T00:21:34.492Z,5.84
2023-04-18T00:24:37.633Z,5.86
2023-04-18T00:27:39.529Z,5.87
2023-04-18T00:30:41.241Z,5.90
2023-04-18T00:33:43.148Z,5.90
2023-04-18T00:36:45.732Z,5.88
2023-04-18T00:39:48.569Z,5.87
2023-04-18T00:42:50.693Z,5.86
2023-04-18T00:45:52.430Z,5.90
2023-04-18T00:48:54.008Z,5.88
2023-04-18T00:51:56.089Z,5.84
2023-04-18T00:55:00.211Z,5.82
2023-04-18T00:58:01.995Z,5.83
2023-04-18T01:01:03.661Z,5.82
2023-04-18T01:04:08.113Z,5.83
2023-04-18T01:07:10.103Z,5.81
2023-04-18T01:10:13.165Z,5.82
2023-04-18T01:13:16.000Z,5.88
2023-04-18T01:16:17.609Z,5.85
2023-04-18T01:19:19.536Z,5.84
2023-04-18T01:22:21.293Z,5.87
2023-04-18T01:25:24.496Z,5.81
2023-04-18T01:28:27.802Z,5.80
2023-04-18T01:31:30.822Z,5.82
2023-04-18T01:34:32.504Z,5.82
2023-04-18T01:37:34.222Z,5.85
2023-04-18T01:40:37.278Z,5.84
2023-04-18T01:43:39.025Z,5.82
2023-04-18T01:46:40.939Z,5.77
2023-04-18T01:49:46.826Z,5.73
2023-04-18T01:52:48.449Z,5.72
2023-04-18T01:55:52.269Z,5.70
2023-04-18T01:58:53.961Z,5.72
2023-04-18T02:01:55.960Z,5.71
2023-04-18T02:04:59.439Z,5.72
2023-04-18T02:08:01.144Z,5.72
2023-04-18T02:11:04.382Z,5.66
2023-04-18T02:14:06.550Z,5.60
2023-04-18T02:17:08.299Z,5.59
2023-04-18T02:20:10.967Z,5.61
2023-04-18T02:23:12.720Z,5.58
2023-04-18T02:26:15.769Z,5.58
2023-04-18T02:29:17.324Z,5.56
2023-04-18T02:32:18.959Z,5.51
2023-04-18T02:35:21.026Z,5.49
2023-04-18T02:38:23.387Z,5.51
2023-04-18T02:41:28.320Z,5.56
2023-04-18T02:44:29.890Z,5.58
2023-04-18T02:47:37.540Z,5.53
2023-04-18T02:50:45.586Z,5.44
2023-04-18T02:53:48.377Z,5.39
2023-04-18T02:56:51.565Z,5.39
2023-04-18T03:00:13.964Z,5.47
2023-04-18T03:03:34.404Z,5.52
2023-04-18T03:06:53.372Z,5.50
2023-04-18T03:09:55.323Z,5.49
2023-04-18T03:13:03.350Z,5.51
2023-04-18T03:16:05.831Z,5.48
2023-04-18T03:19:08.532Z,5.39
2023-04-18T03:22:10.533Z,5.33
2023-04-18T03:25:19.552Z,5.38
2023-04-18T03:28:28.855Z,5.39
2023-04-18T03:31:31.101Z,5.37
2023-04-18T03:34:32.848Z,5.36
2023-04-18T03:37:34.959Z,5.34
2023-04-18T03:40:37.572Z,5.33
2023-04-18T03:43:48.207Z,5.29
2023-04-18T03:46:50.163Z,5.22
2023-04-18T03:49:54.327Z,5.21
2023-04-18T03:52:57.866Z,5.30
2023-04-18T03:55:59.684Z,5.28
2023-04-18T03:59:16.908Z,5.34
2023-04-18T04:02:23.029Z,5.33
2023-04-18T04:05:25.436Z,5.33
2023-04-18T04:08:28.303Z,5.32
2023-04-18T04:11:30.231Z,5.28
2023-04-18T04:14:34.270Z,5.22
2023-04-18T04:17:36.727Z,5.21
2023-04-18T04:20:38.583Z,5.24
2023-04-18T04:23:48.250Z,5.26
2023-04-18T04:27:12.521Z,5.23
2023-04-18T04:30:16.862Z,5.20
2023-04-18T04:33:20.651Z,5.18
2023-04-18T04:36:24.719Z,5.22
2023-04-18T04:39:27.626Z,5.14
2023-04-18T04:42:42.322Z,5.10
2023-04-18T04:45:53.116Z,5.15
2023-04-18T04:48:58.209Z,5.07
2023-04-18T04:52:02.752Z,5.10
2023-04-18T04:55:05.349Z,5.08
2023-04-18T04:58:07.122Z,5.14
2023-04-18T05:01:33.685Z,5.14
2023-04-18T05:04:35.593Z,5.13
2023-04-18T05:07:37.347Z,5.08
2023-04-18T05:10:39.092Z,4.96
2023-04-18T05:13:40.713Z,4.99
2023-04-18T05:16:43.849Z,5.03
2023-04-18T05:19:45.653Z,5.08
2023-04-18T05:22:47.185Z,5.05
2023-04-18T05:25:48.895Z,5.00
2023-04-18T05:28:50.664Z,5.02
2023-04-18T05:31:53.825Z,5.02
2023-04-18T05:34:55.779Z,5.09
2023-04-18T05:37:57.586Z,5.15
2023-04-18T05:41:00.401Z,5.16
2023-04-18T05:44:05.764Z,5.15
2023-04-18T05:47:09.084Z,5.17
2023-04-18T05:50:10.981Z,5.10
2023-04-18T05:53:12.880Z,5.11
2023-04-18T05:56:14.594Z,5.10
2023-04-18T05:59:16.780Z,5.05
2023-04-18T06:02:19.955Z,5.06
2023-04-18T06:05:22.062Z,5.11
2023-04-18T06:08:23.865Z,5.14
2023-04-18T06:11:25.665Z,5.15
2023-04-18T06:14:27.496Z,5.20
2023-04-18T06:17:30.661Z,5.23
2023-04-18T06:20:32.193Z,5.19
2023-04-18T06:23:33.756Z,5.14
2023-04-18T06:26:35.538Z,5.13
2023-04-18T06:29:38.069Z,5.18
2023-04-18T06:32:41.233Z,5.20
2023-04-18T06:35:42.929Z,5.17
2023-04-18T06:38:44.482Z,5.13
2023-04-18T06:41:46.067Z,5.19
2023-04-18T06:44:54.651Z,5.20
2023-04-18T06:47:59.591Z,5.23
2023-04-18T06:51:01.251Z,5.22
2023-04-18T06:54:02.789Z,5.24
2023-04-18T06:57:04.403Z,5.22
2023-04-18T07:00:06.699Z,5.24
2023-04-18T07:03:13.304Z,5.25
2023-04-18T07:06:15.534Z,5.28
2023-04-18T07:09:17.406Z,5.29
2023-04-18T07:12:18.962Z,5.33
2023-04-18T07:15:20.559Z,5.38
2023-04-18T07:18:34.354Z,5.38
2023-04-18T07:21:40.678Z,5.45
2023-04-18T07:24:42.439Z,5.42
2023-04-18T07:27:44.009Z,5.39
2023-04-18T07:30:46.050Z,5.38
2023-04-18T07:33:49.164Z,5.43
2023-04-18T07:36:51.471Z,5.44
2023-04-18T07:39:53.052Z,5.47
2023-04-18T07:42:54.643Z,5.51
2023-04-18T07:45:56.230Z,5.47
2023-04-18T07:49:01.243Z,5.36
2023-04-18T07:52:02.982Z,5.46
2023-04-18T07:55:05.533Z,5.52
2023-04-18T07:58:07.403Z,5.59
2023-04-18T08:01:13.602Z,5.62
2023-04-18T08:04:16.707Z,5.71
2023-04-18T08:07:18.750Z,5.78
2023-04-18T08:10:22.485Z,5.88
2023-04-18T08:13:25.289Z,5.80
2023-04-18T08:16:27.254Z,5.84
2023-04-18T08:19:30.454Z,5.83
2023-04-18T08:22:32.292Z,5.84
2023-04-18T08:25:33.974Z,5.79
2023-04-18T08:28:35.605Z,5.80
2023-04-18T08:31:39.600Z,5.83
2023-04-18T08:34:43.485Z,5.91
2023-04-18T08:37:45.153Z,5.90
2023-04-18T08:40:46.793Z,5.92
2023-04-18T08:43:49.070Z,6.00
2023-04-18T08:46:50.767Z,6.06
2023-04-18T08:49:53.958Z,6.09
2023-04-18T08:52:56.484Z,6.18
2023-04-18T08:56:00.380Z,6.29
2023-04-18T08:59:02.869Z,6.45
2023-04-18T09:02:06.421Z,6.72
2023-04-18T09:05:13.171Z,6.90
2023-04-18T09:08:22.192Z,6.99
2023-04-18T09:11:24.295Z,7.05
2023-04-18T09:14:26.016Z,6.99
2023-04-18T09:17:32.346Z,6.87
2023-04-18T09:20:37.766Z,6.91
2023-04-18T09:23:40.398Z,6.95
2023-04-18T09:26:42.177Z,6.98
2023-04-18T09:29:46.472Z,7.17
2023-04-18T09:32:56.897Z,7.14
2023-04-18T09:36:16.534Z,7.26
2023-04-18T09:39:26.404Z,7.38
2023-04-18T09:42:35.736Z,7.62
2023-04-18T09:45:37.446Z,7.65
2023-04-18T09:48:39.740Z,7.57
2023-04-18T09:51:43.447Z,7.57
2023-04-18T09:54:48.230Z,7.50
2023-04-18T09:57:52.132Z,7.55
2023-04-18T10:00:54.192Z,7.61
2023-04-18T10:03:57.411Z,7.60
2023-04-18T10:07:00.840Z,7.65
2023-04-18T10:10:02.475Z,7.79
2023-04-18T10:13:05.633Z,7.84
2023-04-18T10:16:07.612Z,8.10
2023-04-18T10:19:22.699Z,8.22
2023-04-18T10:22:28.308Z,8.22
2023-04-18T10:25:51.827Z,8.34
2023-04-18T10:28:54.772Z,8.43
2023-04-18T10:31:56.767Z,8.44
2023-04-18T10:34:59.778Z,8.43
2023-04-18T10:38:02.866Z,8.35
2023-04-18T10:41:15.548Z,8.24
2023-04-18T10:44:22.197Z,8.24
2023-04-18T10:47:26.099Z,8.30
2023-04-18T10:50:27.752Z,8.42
2023-04-18T10:53:30.842Z,8.25
2023-04-18T10:56:32.644Z,8.08
2023-04-18T10:59:37.584Z,8.06
2023-04-18T11:02:40.138Z,8.02
2023-04-18T11:05:41.689Z,8.07
2023-04-18T11:08:45.327Z,8.16
2023-04-18T11:11:46.856Z,8.24
2023-04-18T11:14:49.592Z,8.41
2023-04-18T11:17:55.973Z,8.55
2023-04-18T11:20:58.947Z,8.53
2023-04-18T11:24:02.395Z,8.38
2023-04-18T11:27:04.300Z,8.38
2023-04-18T11:30:07.209Z,8.35
2023-04-18T11:33:09.339Z,8.44
2023-04-18T11:36:11.772Z,8.48
2023-04-18T11:39:14.845Z,8.52
2023-04-18T11:42:16.515Z,8.46
2023-04-18T11:45:18.022Z,8.38
2023-04-18T11:48:19.494Z,8.37
2023-04-18T11:51:34.607Z,8.45
2023-04-18T11:54:41.351Z,8.49
2023-04-18T11:57:49.084Z,8.53
2023-04-18T12:00:50.650Z,8.62
2023-04-18T12:04:02.345Z,8.62
2023-04-18T12:07:04.962Z,8.68
2023-04-18T12:10:09.145Z,8.78
2023-04-18T12:13:11.005Z,8.81
2023-04-18T12:16:12.745Z,8.79
2023-04-18T12:19:14.607Z,8.80
2023-04-18T12:22:16.827Z,8.73
2023-04-18T12:25:27.075Z,8.73
2023-04-18T12:28:29.867Z,8.76
2023-04-18T12:31:31.792Z,8.86
2023-04-18T12:34:33.454Z,9.09
2023-04-18T12:37:35.153Z,9.10
2023-04-18T12:40:38.467Z,9.14
2023-04-18T12:43:40.235Z,9.26
2023-04-18T12:46:41.799Z,9.39
2023-04-18T12:49:43.685Z,9.22
2023-04-18T12:52:45.709Z,9.23
2023-04-18T12:55:48.685Z,9.27
2023-04-18T12:58:50.751Z,9.23
2023-04-18T13:01:52.428Z,9.17
2023-04-18T13:04:54.110Z,9.20
2023-04-18T13:08:08.661Z,9.14
2023-04-18T13:11:18.688Z,9.06
2023-04-18T13:14:20.524Z,8.92
2023-04-18T13:17:22.405Z,8.85
2023-04-18T13:20:24.191Z,8.75
2023-04-18T13:23:25.835Z,8.91
2023-04-18T13:26:28.802Z,9.03
2023-04-18T13:29:30.695Z,9.25
2023-04-18T13:32:32.535Z,9.50
2023-04-18T13:35:34.072Z,9.40
2023-04-18T13:38:35.670Z,9.37
2023-04-18T13:41:38.541Z,9.45
2023-04-18T13:44:40.340Z,9.85
2023-04-18T13:47:41.895Z,10.18
2023-04-18T13:50:43.439Z,10.61
2023-04-18T13:53:45.051Z,10.02
2023-04-18T13:56:47.994Z,10.02
2023-04-18T13:59:49.481Z,10.05
2023-04-18T14:02:51.271Z,9.94
2023-04-18T14:05:53.292Z,9.68
2023-04-18T14:08:54.867Z,9.80
2023-04-18T14:11:58.529Z,10.44
2023-04-18T14:15:00.525Z,10.90
2023-04-18T14:18:02.201Z,10.91
2023-04-18T14:21:04.883Z,11.06
2023-04-18T14:24:06.973Z,11.28
2023-04-18T14:27:09.950Z,11.45
2023-04-18T14:30:12.280Z,11.64
2023-04-18T14:33:14.034Z,11.57
2023-04-18T14:36:16.810Z,10.97
2023-04-18T14:39:18.511Z,11.29
2023-04-18T14:42:21.944Z,11.41
2023-04-18T14:45:23.445Z,11.28
2023-04-18T14:48:25.022Z,11.38
2023-04-18T14:51:26.647Z,11.46
2023-04-18T14:54:28.724Z,11.22
2023-04-18T14:57:32.795Z,10.40
2023-04-18T15:00:34.373Z,10.23
2023-04-18T15:03:36.001Z,10.06
2023-04-18T15:06:37.681Z,10.22
2023-04-18T15:09:39.636Z,10.11
2023-04-18T15:12:42.877Z,9.99
2023-04-18T15:15:50.916Z,9.69
2023-04-18T15:18:52.496Z,9.42
2023-04-18T15:21:54.089Z,9.97
2023-04-18T15:24:55.732Z,10.33
2023-04-18T15:27:58.720Z,10.26
2023-04-18T15:31:01.042Z,10.58
2023-04-18T15:34:02.758Z,10.95
2023-04-18T15:37:04.584Z,10.97
2023-04-18T15:40:09.311Z,10.73
2023-04-18T15:43:13.711Z,10.52
2023-04-18T15:46:16.037Z,10.87
2023-04-18T15:49:17.780Z,11.08
2023-04-18T15:52:19.429Z,10.67
2023-04-18T15:55:21.250Z,10.45
2023-04-18T15:58:29.851Z,10.59
2023-04-18T16:01:31.762Z,10.83
2023-04-18T16:04:33.777Z,10.63
2023-04-18T16:07:35.387Z,10.85
2023-04-18T16:10:37.462Z,10.96
2023-04-18T16:13:40.573Z,11.04
2023-04-18T16:16:42.207Z,10.90
2023-04-18T16:19:44.096Z,10.88
2023-04-18T16:22:45.980Z,10.85
2023-04-18T16:25:47.819Z,10.82
2023-04-18T16:28:50.923Z,10.86
2023-04-18T16:31:52.815Z,10.73
2023-04-18T16:34:54.548Z,10.66
2023-04-18T16:37:56.155Z,10.74
2023-04-18T16:40:58.867Z,10.85
2023-04-18T16:44:01.942Z,10.77
2023-04-18T16:47:05.135Z,10.79
2023-04-18T16:50:08.058Z,10.76
2023-04-18T16:53:09.914Z,10.44
2023-04-18T16:56:11.446Z,10.27
2023-04-18T16:59:14.613Z,10.21
2023-04-18T17:02:16.378Z,10.13
2023-04-18T17:05:19.412Z,10.09
2023-04-18T17:08:21.109Z,10.09
2023-04-18T17:11:23.225Z,10.04
2023-04-18T17:14:26.224Z,9.89
2023-04-18T17:17:27.982Z,9.88
2023-04-18T17:20:30.027Z,9.81
2023-04-18T17:23:32.942Z,9.78
2023-04-18T17:26:35.268Z,9.79
2023-04-18T17:29:38.540Z,9.85
2023-04-18T17:32:46.059Z,9.86
2023-04-18T17:35:48.325Z,9.89
2023-04-18T17:38:50.203Z,9.95
2023-04-18T17:41:51.812Z,9.94
2023-04-18T17:44:55.304Z,9.95
2023-04-18T17:47:58.308Z,9.92
2023-04-18T17:51:00.079Z,9.82
2023-04-18T17:54:02.131Z,9.73
2023-04-18T17:57:03.755Z,9.69
2023-04-18T18:00:11.083Z,9.68
2023-04-18T18:03:15.998Z,9.65
2023-04-18T18:06:17.748Z,9.65
2023-04-18T18:09:19.440Z,9.64
2023-04-18T18:12:21.392Z,9.61
2023-04-18T18:15:24.458Z,9.53
2023-04-18T18:18:26.346Z,9.51
2023-04-18T18:21:28.881Z,9.50
2023-04-18T18:24:30.671Z,9.46
2023-04-18T18:27:32.311Z,9.43
2023-04-18T18:30:37.405Z,9.41
2023-04-18T18:33:39.073Z,9.39
2023-04-18T18:36:40.876Z,9.39
2023-04-18T18:39:42.509Z,9.38
2023-04-18T18:42:44.194Z,9.40
2023-04-18T18:45:47.298Z,9.37
2023-04-18T18:48:50.378Z,9.37
2023-04-18T18:51:52.139Z,9.38
2023-04-18T18:54:54.589Z,9.41
2023-04-18T18:57:56.073Z,9.38
2023-04-18T19:01:02.280Z,9.36
2023-04-18T19:04:04.081Z,9.35
2023-04-18T19:07:06.145Z,9.35
2023-04-18T19:10:09.030Z,9.35
2023-04-18T19:13:10.844Z,9.35
2023-04-18T19:16:14.519Z,9.36
2023-04-18T19:19:17.542Z,9.34
2023-04-18T19:22:19.052Z,9.35
2023-04-18T19:25:21.284Z,9.37
2023-04-18T19:28:23.116Z,9.33
2023-04-18T19:31:26.271Z,9.33
2023-04-18T19:34:27.903Z,9.34
2023-04-18T19:37:29.708Z,9.35
2023-04-18T19:40:31.585Z,9.37
2023-04-18T19:43:34.494Z,9.35
2023-04-18T19:46:38.183Z,9.35
2023-04-18T19:49:39.867Z,9.37
2023-04-18T19:52:41.689Z,9.36
2023-04-18T19:55:44.469Z,9.37
2023-04-18T19:58:46.778Z,9.36
2023-04-18T20:01:49.858Z,9.37
2023-04-18T20:04:51.519Z,9.36
2023-04-18T20:07:53.198Z,9.35
2023-04-18T20:10:54.827Z,9.34
2023-04-18T20:13:56.621Z,9.34
2023-04-18T20:16:59.714Z,9.35
2023-04-18T20:20:01.933Z,9.34
2023-04-18T20:23:03.672Z,9.33
2023-04-18T20:26:06.828Z,9.32
2023-04-18T20:29:08.453Z,9.30
2023-04-18T20:32:11.874Z,9.30
2023-04-18T20:35:15.467Z,9.30
2023-04-18T20:38:31.766Z,9.30
2023-04-18T20:41:34.816Z,9.32
2023-04-18T20:44:36.595Z,9.30
2023-04-18T20:47:42.172Z,9.32
2023-04-18T20:50:49.861Z,9.33
2023-04-18T20:53:51.944Z,9.31
2023-04-18T20:56:53.568Z,9.31
2023-04-18T20:59:58.789Z,9.30
2023-04-18T21:03:02.019Z,9.25
2023-04-18T21:06:03.942Z,9.26
2023-04-18T21:09:06.555Z,9.26
2023-04-18T21:12:08.378Z,9.27
2023-04-18T21:15:11.200Z,9.27
2023-04-18T21:18:15.685Z,9.27
2023-04-18T21:21:17.727Z,9.25
2023-04-18T21:24:19.475Z,9.24
2023-04-18T21:27:21.184Z,9.25
2023-04-18T21:30:23.262Z,9.23
2023-04-18T21:33:26.900Z,9.22
2023-04-18T21:36:31.049Z,9.21
2023-04-18T21:39:32.727Z,9.21
2023-04-18T21:42:35.499Z,9.20
2023-04-18T21:45:37.038Z,9.18
2023-04-18T21:48:40.782Z,9.17
2023-04-18T21:51:42.294Z,9.13
2023-04-18T21:54:43.948Z,9.13
2023-04-18T21:57:45.604Z,9.10
2023-04-18T22:00:47.098Z,9.08
2023-04-18T22:03:50.299Z,9.07
2023-04-18T22:06:54.208Z,9.05
2023-04-18T22:09:57.936Z,9.00
2023-04-18T22:13:00.285Z,8.97
2023-04-18T22:16:02.979Z,8.93
2023-04-18T22:19:06.199Z,8.91
2023-04-18T22:22:07.714Z,8.89
2023-04-18T22:25:11.541Z,8.85
2023-04-18T22:28:13.122Z,8.82
2023-04-18T22:31:17.484Z,8.80
2023-04-18T22:34:20.343Z,8.76
2023-04-18T22:37:21.893Z,8.70
2023-04-18T22:40:23.615Z,8.68
2023-04-18T22:43:26.845Z,8.67
2023-04-18T22:46:28.618Z,8.60
2023-04-18T22:49:33.028Z,8.56
2023-04-18T22:52:34.636Z,8.52
2023-04-18T22:55:38.401Z,8.46
2023-04-18T22:58:40.046Z,8.45
2023-04-18T23:01:41.851Z,8.41
2023-04-18T23:04:46.282Z,8.38
2023-04-18T23:07:47.964Z,8.35
2023-04-18T23:10:49.868Z,8.32
2023-04-18T23:13:51.584Z,8.27
2023-04-18T23:16:53.169Z,8.27
2023-04-18T23:19:56.038Z,8.24
2023-04-18T23:22:57.582Z,8.22
2023-04-18T23:25:59.257Z,8.21
2023-04-18T23:29:00.867Z,8.21
2023-04-18T23:32:02.591Z,8.23
2023-04-18T23:35:06.861Z,8.20
2023-04-18T23:38:08.480Z,8.16
2023-04-18T23:41:10.332Z,8.14
2023-04-18T23:44:11.811Z,8.14
2023-04-18T23:47:13.628Z,8.12
2023-04-18T23:50:16.674Z,8.09
2023-04-18T23:53:18.698Z,8.08
2023-04-18T23:56:20.552Z,8.01
2023-04-18T23:59:22.139Z,7.96
